sensor_id;sensor_type;location;lat;lon;timestamp;pressure;altitude;pressure_sealevel;temperature;humidity
12799;BME280;19250;42.646;26.980;2022-12-19T00:01:19;100952.09;;;6.80;86.58
12799;BME280;19250;42.646;26.980;2022-12-19T00:03:48;100963.47;;;6.82;87.08
12799;BME280;19250;42.646;26.980;2022-12-19T00:06:17;100963.06;;;6.74;91.95
12799;BME280;19250;42.646;26.980;2022-12-19T00:08:46;100961.84;;;6.95;91.07
12799;BME280;19250;42.646;26.980;2022-12-19T00:11:14;100973.25;;;6.66;88.28
12799;BME280;19250;42.646;26.980;2022-12-19T00:13:42;100976.72;;;6.67;90.02
12799;BME280;19250;42.646;26.980;2022-12-19T00:16:11;100975.94;;;7.11;90.04
12799;BME280;19250;42.646;26.980;2022-12-19T00:18:41;100988.53;;;7.38;87.43
12799;BME280;19250;42.646;26.980;2022-12-19T00:21:10;100987.25;;;7.15;87.04
12799;BME280;19250;42.646;26.980;2022-12-19T00:23:37;100975.63;;;7.02;87.26
12799;BME280;19250;42.646;26.980;2022-12-19T00:26:10;101005.81;;;6.84;86.05
12799;BME280;19250;42.646;26.980;2022-12-19T00:28:37;101002.81;;;6.90;85.90
12799;BME280;19250;42.646;26.980;2022-12-19T00:31:05;100996.38;;;7.09;85.89
12799;BME280;19250;42.646;26.980;2022-12-19T00:33:33;100981.22;;;7.27;84.84
12799;BME280;19250;42.646;26.980;2022-12-19T00:36:03;101002.84;;;7.35;86.68
12799;BME280;19250;42.646;26.980;2022-12-19T00:38:32;100819.50;;;5.89;87.63
12799;BME280;19250;42.646;26.980;2022-12-19T00:41:06;100993.19;;;7.19;84.97
12799;BME280;19250;42.646;26.980;2022-12-19T00:43:33;100993.06;;;7.06;84.66
12799;BME280;19250;42.646;26.980;2022-12-19T00:46:02;100992.63;;;6.98;87.03
12799;BME280;19250;42.646;26.980;2022-12-19T00:48:29;100999.59;;;6.69;89.75
12799;BME280;19250;42.646;26.980;2022-12-19T00:51:02;100997.34;;;6.77;88.29
12799;BME280;19250;42.646;26.980;2022-12-19T00:53:30;101001.94;;;6.42;87.27
12799;BME280;19250;42.646;26.980;2022-12-19T00:56:00;100996.63;;;6.42;88.81
12799;BME280;19250;42.646;26.980;2022-12-19T00:58:28;100986.38;;;6.52;86.94
12799;BME280;19250;42.646;26.980;2022-12-19T01:00:55;100981.94;;;6.37;89.83
12799;BME280;19250;42.646;26.980;2022-12-19T01:03:23;100880.16;;;5.60;88.61
12799;BME280;19250;42.646;26.980;2022-12-19T01:05:50;100965.78;;;5.93;91.34
12799;BME280;19250;42.646;26.980;2022-12-19T01:08:19;100981.34;;;5.99;92.33
12799;BME280;19250;42.646;26.980;2022-12-19T01:10:48;100982.03;;;6.02;89.42
12799;BME280;19250;42.646;26.980;2022-12-19T01:13:17;100974.84;;;6.37;89.41
12799;BME280;19250;42.646;26.980;2022-12-19T01:15:44;100986.31;;;6.53;87.41
12799;BME280;19250;42.646;26.980;2022-12-19T01:18:11;100983.75;;;6.52;86.35
12799;BME280;19250;42.646;26.980;2022-12-19T01:20:40;100983.63;;;6.22;87.71
12799;BME280;19250;42.646;26.980;2022-12-19T01:23:08;100988.91;;;6.22;87.19
12799;BME280;19250;42.646;26.980;2022-12-19T01:25:37;100991.44;;;6.56;87.61
12799;BME280;19250;42.646;26.980;2022-12-19T01:28:05;100977.34;;;6.56;86.17
12799;BME280;19250;42.646;26.980;2022-12-19T01:30:33;100968.84;;;6.34;84.79
12799;BME280;19250;42.646;26.980;2022-12-19T01:33:01;100990.16;;;6.48;85.36
12799;BME280;19250;42.646;26.980;2022-12-19T01:35:28;100994.94;;;6.41;82.81
12799;BME280;19250;42.646;26.980;2022-12-19T01:37:55;100996.97;;;6.21;85.89
12799;BME280;19250;42.646;26.980;2022-12-19T01:40:23;100990.28;;;5.96;90.26
12799;BME280;19250;42.646;26.980;2022-12-19T01:42:51;100992.34;;;5.74;93.74
12799;BME280;19250;42.646;26.980;2022-12-19T01:45:27;100998.66;;;5.72;94.55
12799;BME280;19250;42.646;26.980;2022-12-19T01:47:59;100998.50;;;5.75;94.62
12799;BME280;19250;42.646;26.980;2022-12-19T01:50:35;100988.97;;;6.05;94.18
12799;BME280;19250;42.646;26.980;2022-12-19T01:53:04;100993.81;;;6.45;92.48
12799;BME280;19250;42.646;26.980;2022-12-19T01:55:33;101000.22;;;5.93;89.32
12799;BME280;19250;42.646;26.980;2022-12-19T01:58:02;101003.19;;;5.87;86.88
12799;BME280;19250;42.646;26.980;2022-12-19T02:00:29;101003.31;;;5.84;87.73
12799;BME280;19250;42.646;26.980;2022-12-19T02:03:02;101006.59;;;5.72;87.31
12799;BME280;19250;42.646;26.980;2022-12-19T02:05:32;100999.72;;;5.33;87.56
12799;BME280;19250;42.646;26.980;2022-12-19T02:08:00;101010.91;;;5.21;87.60
12799;BME280;19250;42.646;26.980;2022-12-19T02:10:27;101000.16;;;5.41;89.48
12799;BME280;19250;42.646;26.980;2022-12-19T02:12:55;100993.16;;;5.23;86.44
12799;BME280;19250;42.646;26.980;2022-12-19T02:15:25;100993.09;;;5.42;85.45
12799;BME280;19250;42.646;26.980;2022-12-19T02:18:02;101001.59;;;5.31;85.80
12799;BME280;19250;42.646;26.980;2022-12-19T02:21:11;101008.03;;;5.26;87.06
12799;BME280;19250;42.646;26.980;2022-12-19T02:26:58;100992.78;;;5.31;88.90
12799;BME280;19250;42.646;26.980;2022-12-19T02:32:30;101007.56;;;4.99;88.04
12799;BME280;19250;42.646;26.980;2022-12-19T02:35:07;101008.09;;;5.24;88.62
12799;BME280;19250;42.646;26.980;2022-12-19T02:37:43;101004.13;;;5.33;87.91
12799;BME280;19250;42.646;26.980;2022-12-19T02:40:18;100999.31;;;4.88;89.22
12799;BME280;19250;42.646;26.980;2022-12-19T02:42:50;101021.78;;;5.32;90.81
12799;BME280;19250;42.646;26.980;2022-12-19T02:45:22;101030.38;;;5.37;89.91
12799;BME280;19250;42.646;26.980;2022-12-19T02:47:53;101030.72;;;5.13;91.35
12799;BME280;19250;42.646;26.980;2022-12-19T02:50:20;101030.50;;;4.99;91.80
12799;BME280;19250;42.646;26.980;2022-12-19T02:52:48;101036.19;;;4.91;94.25
12799;BME280;19250;42.646;26.980;2022-12-19T02:55:19;101013.03;;;4.77;93.06
12799;BME280;19250;42.646;26.980;2022-12-19T02:58:07;101034.88;;;5.00;91.44
12799;BME280;19250;42.646;26.980;2022-12-19T03:00:43;101041.09;;;4.99;93.10
12799;BME280;19250;42.646;26.980;2022-12-19T03:03:20;101039.75;;;4.71;93.55
12799;BME280;19250;42.646;26.980;2022-12-19T03:05:57;101033.03;;;4.46;93.96
12799;BME280;19250;42.646;26.980;2022-12-19T03:08:36;101050.16;;;4.56;95.30
12799;BME280;19250;42.646;26.980;2022-12-19T03:11:06;101049.72;;;4.27;96.98
12799;BME280;19250;42.646;26.980;2022-12-19T03:13:38;101055.69;;;4.12;96.89
12799;BME280;19250;42.646;26.980;2022-12-19T03:16:09;101060.16;;;3.90;97.91
12799;BME280;19250;42.646;26.980;2022-12-19T03:18:38;101044.66;;;3.82;99.55
12799;BME280;19250;42.646;26.980;2022-12-19T03:21:10;101052.53;;;3.84;100.00
12799;BME280;19250;42.646;26.980;2022-12-19T03:23:40;101060.78;;;3.97;100.00
12799;BME280;19250;42.646;26.980;2022-12-19T03:26:10;101055.81;;;4.09;100.00
12799;BME280;19250;42.646;26.980;2022-12-19T03:28:42;101062.03;;;3.88;100.00
12799;BME280;19250;42.646;26.980;2022-12-19T03:31:14;101058.78;;;4.22;98.71
12799;BME280;19250;42.646;26.980;2022-12-19T03:33:44;101064.84;;;4.04;99.19
12799;BME280;19250;42.646;26.980;2022-12-19T03:36:16;101052.56;;;3.82;99.79
12799;BME280;19250;42.646;26.980;2022-12-19T03:38:45;101068.66;;;3.76;100.00
12799;BME280;19250;42.646;26.980;2022-12-19T03:41:15;101070.03;;;3.65;100.00
12799;BME280;19250;42.646;26.980;2022-12-19T03:44:06;101064.06;;;3.40;100.00
12799;BME280;19250;42.646;26.980;2022-12-19T03:46:38;101012.47;;;3.12;100.00
12799;BME280;19250;42.646;26.980;2022-12-19T03:49:10;101059.88;;;3.56;100.00
12799;BME280;19250;42.646;26.980;2022-12-19T03:51:44;101010.09;;;3.48;99.71
12799;BME280;19250;42.646;26.980;2022-12-19T03:54:16;101062.72;;;3.51;99.93
12799;BME280;19250;42.646;26.980;2022-12-19T03:56:49;101058.50;;;3.47;100.00
12799;BME280;19250;42.646;26.980;2022-12-19T03:59:20;101066.88;;;3.57;99.49
12799;BME280;19250;42.646;26.980;2022-12-19T04:01:49;101074.22;;;3.49;100.00
12799;BME280;19250;42.646;26.980;2022-12-19T04:04:20;101071.06;;;3.41;99.91
12799;BME280;19250;42.646;26.980;2022-12-19T04:06:50;101081.47;;;3.44;99.24
12799;BME280;19250;42.646;26.980;2022-12-19T04:09:20;101083.09;;;3.48;98.60
12799;BME280;19250;42.646;26.980;2022-12-19T04:11:50;101003.22;;;2.81;100.00
12799;BME280;19250;42.646;26.980;2022-12-19T04:14:25;101089.63;;;3.38;100.00
12799;BME280;19250;42.646;26.980;2022-12-19T04:16:56;101055.75;;;3.28;100.00
12799;BME280;19250;42.646;26.980;2022-12-19T04:19:33;101076.31;;;2.97;100.00
12799;BME280;19250;42.646;26.980;2022-12-19T04:22:06;101098.13;;;3.24;100.00
12799;BME280;19250;42.646;26.980;2022-12-19T04:24:36;101098.88;;;3.04;100.00
12799;BME280;19250;42.646;26.980;2022-12-19T04:27:07;101101.75;;;2.98;100.00
12799;BME280;19250;42.646;26.980;2022-12-19T04:29:37;101097.28;;;3.00;100.00
12799;BME280;19250;42.646;26.980;2022-12-19T04:32:05;101109.78;;;2.95;100.00
12799;BME280;19250;42.646;26.980;2022-12-19T04:34:36;101082.66;;;2.70;100.00
12799;BME280;19250;42.646;26.980;2022-12-19T04:37:03;101121.69;;;3.05;100.00
12799;BME280;19250;42.646;26.980;2022-12-19T04:39:30;101080.53;;;2.80;100.00
12799;BME280;19250;42.646;26.980;2022-12-19T04:41:58;101118.19;;;3.05;100.00
12799;BME280;19250;42.646;26.980;2022-12-19T04:44:25;101121.13;;;2.97;100.00
12799;BME280;19250;42.646;26.980;2022-12-19T04:46:52;101122.25;;;3.13;100.00
12799;BME280;19250;42.646;26.980;2022-12-19T04:49:20;101119.84;;;3.07;100.00
12799;BME280;19250;42.646;26.980;2022-12-19T04:51:48;101124.03;;;3.13;100.00
12799;BME280;19250;42.646;26.980;2022-12-19T04:54:16;101133.69;;;3.12;100.00
12799;BME280;19250;42.646;26.980;2022-12-19T04:56:43;101134.81;;;3.07;100.00
12799;BME280;19250;42.646;26.980;2022-12-19T04:59:10;101132.19;;;3.28;100.00
12799;BME280;19250;42.646;26.980;2022-12-19T05:01:38;101134.03;;;3.26;100.00
12799;BME280;19250;42.646;26.980;2022-12-19T05:04:05;101138.97;;;3.12;100.00
12799;BME280;19250;42.646;26.980;2022-12-19T05:06:32;101136.03;;;2.98;100.00
12799;BME280;19250;42.646;26.980;2022-12-19T05:09:01;101149.50;;;3.12;100.00
12799;BME280;19250;42.646;26.980;2022-12-19T05:11:28;101152.84;;;3.17;100.00
12799;BME280;19250;42.646;26.980;2022-12-19T05:13:57;101145.00;;;3.16;100.00
12799;BME280;19250;42.646;26.980;2022-12-19T05:16:24;101157.78;;;2.80;100.00
12799;BME280;19250;42.646;26.980;2022-12-19T05:18:52;101167.97;;;2.89;100.00
12799;BME280;19250;42.646;26.980;2022-12-19T05:21:20;101165.56;;;2.83;100.00
12799;BME280;19250;42.646;26.980;2022-12-19T05:23:47;101171.41;;;2.91;100.00
12799;BME280;19250;42.646;26.980;2022-12-19T05:26:16;101180.81;;;2.75;100.00
12799;BME280;19250;42.646;26.980;2022-12-19T05:28:44;101185.03;;;2.79;100.00
12799;BME280;19250;42.646;26.980;2022-12-19T05:31:13;101181.53;;;2.79;100.00
12799;BME280;19250;42.646;26.980;2022-12-19T05:33:42;101180.81;;;2.75;100.00
12799;BME280;19250;42.646;26.980;2022-12-19T05:36:10;101188.03;;;2.93;100.00
12799;BME280;19250;42.646;26.980;2022-12-19T05:38:37;101181.50;;;3.03;100.00
12799;BME280;19250;42.646;26.980;2022-12-19T05:41:06;101180.13;;;2.93;100.00
12799;BME280;19250;42.646;26.980;2022-12-19T05:43:35;101191.56;;;2.69;100.00
12799;BME280;19250;42.646;26.980;2022-12-19T05:46:03;101190.06;;;2.62;100.00
12799;BME280;19250;42.646;26.980;2022-12-19T05:48:31;101189.28;;;2.83;100.00
12799;BME280;19250;42.646;26.980;2022-12-19T05:50:58;101195.09;;;2.68;100.00
12799;BME280;19250;42.646;26.980;2022-12-19T05:53:25;101197.19;;;2.83;100.00
12799;BME280;19250;42.646;26.980;2022-12-19T05:56:02;101201.56;;;2.84;100.00
12799;BME280;19250;42.646;26.980;2022-12-19T05:58:29;101200.47;;;2.90;100.00
12799;BME280;19250;42.646;26.980;2022-12-19T06:01:04;101193.28;;;2.70;100.00
12799;BME280;19250;42.646;26.980;2022-12-19T06:03:31;101151.69;;;2.55;100.00
12799;BME280;19250;42.646;26.980;2022-12-19T06:06:01;101195.16;;;3.14;100.00
12799;BME280;19250;42.646;26.980;2022-12-19T06:08:29;101193.00;;;3.01;100.00
12799;BME280;19250;42.646;26.980;2022-12-19T06:10:57;101220.41;;;3.20;100.00
12799;BME280;19250;42.646;26.980;2022-12-19T06:13:25;101209.47;;;3.07;100.00
12799;BME280;19250;42.646;26.980;2022-12-19T06:15:56;101219.31;;;3.25;100.00
12799;BME280;19250;42.646;26.980;2022-12-19T06:18:26;101227.78;;;3.34;100.00
12799;BME280;19250;42.646;26.980;2022-12-19T06:20:57;101226.94;;;3.55;100.00
12799;BME280;19250;42.646;26.980;2022-12-19T06:23:24;101194.75;;;3.47;100.00
12799;BME280;19250;42.646;26.980;2022-12-19T06:25:52;101135.66;;;3.07;100.00
12799;BME280;19250;42.646;26.980;2022-12-19T06:28:21;101231.38;;;3.54;100.00
12799;BME280;19250;42.646;26.980;2022-12-19T06:30:48;101239.09;;;3.59;100.00
12799;BME280;19250;42.646;26.980;2022-12-19T06:33:15;101245.88;;;3.43;100.00
12799;BME280;19250;42.646;26.980;2022-12-19T06:35:44;101254.66;;;3.66;100.00
12799;BME280;19250;42.646;26.980;2022-12-19T06:38:11;101252.84;;;4.10;100.00
12799;BME280;19250;42.646;26.980;2022-12-19T06:40:41;101247.69;;;4.29;100.00
12799;BME280;19250;42.646;26.980;2022-12-19T06:43:26;101273.91;;;4.33;100.00
12799;BME280;19250;42.646;26.980;2022-12-19T06:45:55;101270.09;;;4.81;100.00
12799;BME280;19250;42.646;26.980;2022-12-19T06:48:22;101275.91;;;5.09;97.65
12799;BME280;19250;42.646;26.980;2022-12-19T06:50:51;101278.34;;;5.53;94.02
12799;BME280;19250;42.646;26.980;2022-12-19T06:56:04;101284.84;;;5.83;89.70
12799;BME280;19250;42.646;26.980;2022-12-19T06:58:32;101287.41;;;5.84;88.41
12799;BME280;19250;42.646;26.980;2022-12-19T07:00:59;101282.19;;;6.20;84.66
12799;BME280;19250;42.646;26.980;2022-12-19T07:03:30;101212.94;;;5.73;82.84
12799;BME280;19250;42.646;26.980;2022-12-19T07:06:00;101288.44;;;6.00;81.07
12799;BME280;19250;42.646;26.980;2022-12-19T07:08:27;101301.06;;;6.13;79.91
12799;BME280;19250;42.646;26.980;2022-12-19T07:10:55;101305.44;;;6.14;81.45
12799;BME280;19250;42.646;26.980;2022-12-19T07:13:22;101289.66;;;6.29;82.01
12799;BME280;19250;42.646;26.980;2022-12-19T07:15:50;101276.63;;;6.08;80.13
12799;BME280;19250;42.646;26.980;2022-12-19T07:18:18;101317.56;;;6.72;77.36
12799;BME280;19250;42.646;26.980;2022-12-19T07:20:45;101319.09;;;7.10;73.53
12799;BME280;19250;42.646;26.980;2022-12-19T07:23:17;101314.75;;;7.42;68.07
12799;BME280;19250;42.646;26.980;2022-12-19T07:25:45;101320.78;;;7.29;65.68
12799;BME280;19250;42.646;26.980;2022-12-19T07:28:13;101322.28;;;7.50;63.84
12799;BME280;19250;42.646;26.980;2022-12-19T07:30:41;101315.03;;;7.21;64.52
12799;BME280;19250;42.646;26.980;2022-12-19T07:33:08;101324.00;;;6.67;67.33
12799;BME280;19250;42.646;26.980;2022-12-19T07:35:35;101319.94;;;6.77;66.73
12799;BME280;19250;42.646;26.980;2022-12-19T07:38:03;101325.66;;;6.33;72.20
12799;BME280;19250;42.646;26.980;2022-12-19T07:40:33;101319.94;;;5.49;79.58
12799;BME280;19250;42.646;26.980;2022-12-19T07:43:02;101323.56;;;6.04;78.71
12799;BME280;19250;42.646;26.980;2022-12-19T07:45:31;101309.44;;;6.22;76.49
12799;BME280;19250;42.646;26.980;2022-12-19T07:47:59;101321.91;;;5.83;76.41
12799;BME280;19250;42.646;26.980;2022-12-19T07:50:27;101321.22;;;5.40;82.95
12799;BME280;19250;42.646;26.980;2022-12-19T07:52:56;101327.59;;;5.55;80.54
12799;BME280;19250;42.646;26.980;2022-12-19T07:55:24;101338.88;;;6.16;75.21
12799;BME280;19250;42.646;26.980;2022-12-19T07:57:53;101335.44;;;6.14;75.87
12799;BME280;19250;42.646;26.980;2022-12-19T08:00:21;101342.47;;;5.58;78.46
12799;BME280;19250;42.646;26.980;2022-12-19T08:02:48;101341.53;;;5.97;76.17
12799;BME280;19250;42.646;26.980;2022-12-19T08:05:16;101344.75;;;6.93;71.40
12799;BME280;19250;42.646;26.980;2022-12-19T08:07:43;101351.09;;;7.25;65.02
12799;BME280;19250;42.646;26.980;2022-12-19T08:10:10;101343.22;;;7.72;62.69
12799;BME280;19250;42.646;26.980;2022-12-19T08:12:39;101357.81;;;7.96;60.34
12799;BME280;19250;42.646;26.980;2022-12-19T08:15:09;101358.34;;;7.87;61.32
12799;BME280;19250;42.646;26.980;2022-12-19T08:17:36;101358.81;;;7.12;64.99
12799;BME280;19250;42.646;26.980;2022-12-19T08:20:05;101356.25;;;7.43;65.81
12799;BME280;19250;42.646;26.980;2022-12-19T08:22:33;101359.44;;;7.50;62.01
12799;BME280;19250;42.646;26.980;2022-12-19T08:25:00;101365.72;;;6.63;70.08
12799;BME280;19250;42.646;26.980;2022-12-19T08:27:27;101361.47;;;7.12;70.18
12799;BME280;19250;42.646;26.980;2022-12-19T08:29:55;101363.22;;;7.79;61.99
12799;BME280;19250;42.646;26.980;2022-12-19T08:32:23;101361.34;;;6.79;66.54
12799;BME280;19250;42.646;26.980;2022-12-19T08:34:51;101369.88;;;7.20;67.80
12799;BME280;19250;42.646;26.980;2022-12-19T08:37:19;101324.94;;;6.83;65.24
12799;BME280;19250;42.646;26.980;2022-12-19T08:39:47;101364.59;;;7.03;66.82
12799;BME280;19250;42.646;26.980;2022-12-19T08:42:14;101368.63;;;7.27;65.01
12799;BME280;19250;42.646;26.980;2022-12-19T08:44:42;101366.31;;;7.54;65.71
12799;BME280;19250;42.646;26.980;2022-12-19T08:47:09;101373.00;;;7.94;62.31
12799;BME280;19250;42.646;26.980;2022-12-19T08:49:38;101369.72;;;7.73;62.19
12799;BME280;19250;42.646;26.980;2022-12-19T08:52:05;101366.56;;;7.82;60.03
12799;BME280;19250;42.646;26.980;2022-12-19T08:54:32;101365.50;;;7.36;63.40
12799;BME280;19250;42.646;26.980;2022-12-19T08:56:59;101356.34;;;7.75;61.74
12799;BME280;19250;42.646;26.980;2022-12-19T08:59:27;101352.69;;;7.93;61.43
12799;BME280;19250;42.646;26.980;2022-12-19T09:01:54;101359.47;;;8.14;55.86
12799;BME280;19250;42.646;26.980;2022-12-19T09:04:22;101302.38;;;8.82;50.09
12799;BME280;19250;42.646;26.980;2022-12-19T09:06:50;101357.34;;;8.20;52.00
12799;BME280;19250;42.646;26.980;2022-12-19T09:09:18;101351.38;;;9.08;51.64
12799;BME280;19250;42.646;26.980;2022-12-19T09:11:45;101356.75;;;9.36;49.10
12799;BME280;19250;42.646;26.980;2022-12-19T09:14:12;101348.19;;;10.57;44.25
12799;BME280;19250;42.646;26.980;2022-12-19T09:16:39;101340.94;;;11.11;41.76
12799;BME280;19250;42.646;26.980;2022-12-19T09:19:07;101336.97;;;10.91;40.94
12799;BME280;19250;42.646;26.980;2022-12-19T09:21:40;101317.25;;;10.13;42.99
12799;BME280;19250;42.646;26.980;2022-12-19T09:24:09;101296.66;;;9.46;43.43
12799;BME280;19250;42.646;26.980;2022-12-19T09:26:37;101335.84;;;10.68;41.89
12799;BME280;19250;42.646;26.980;2022-12-19T09:29:07;101329.56;;;10.43;40.34
12799;BME280;19250;42.646;26.980;2022-12-19T09:31:34;101331.06;;;9.92;42.94
12799;BME280;19250;42.646;26.980;2022-12-19T09:34:01;101329.28;;;9.78;44.59
12799;BME280;19250;42.646;26.980;2022-12-19T09:36:29;101325.16;;;10.68;41.47
12799;BME280;19250;42.646;26.980;2022-12-19T09:38:57;101320.47;;;10.72;40.46
12799;BME280;19250;42.646;26.980;2022-12-19T09:44:40;101300.38;;;9.72;41.54
12799;BME280;19250;42.646;26.980;2022-12-19T09:47:12;101311.06;;;9.00;43.39
12799;BME280;19250;42.646;26.980;2022-12-19T09:49:42;101323.91;;;9.07;44.89
12799;BME280;19250;42.646;26.980;2022-12-19T09:52:13;101313.56;;;9.17;44.68
12799;BME280;19250;42.646;26.980;2022-12-19T09:54:43;101306.34;;;9.19;43.82
12799;BME280;19250;42.646;26.980;2022-12-19T09:57:17;101300.94;;;9.35;44.88
12799;BME280;19250;42.646;26.980;2022-12-19T09:59:49;101295.22;;;10.51;40.89
12799;BME280;19250;42.646;26.980;2022-12-19T10:02:29;101297.50;;;10.30;39.22
12799;BME280;19250;42.646;26.980;2022-12-19T10:05:04;101302.34;;;9.54;40.31
12799;BME280;19250;42.646;26.980;2022-12-19T10:07:33;101294.50;;;8.81;41.67
12799;BME280;19250;42.646;26.980;2022-12-19T10:10:00;101290.81;;;8.97;42.66
12799;BME280;19250;42.646;26.980;2022-12-19T10:12:41;101259.69;;;8.40;43.08
12799;BME280;19250;42.646;26.980;2022-12-19T10:15:16;101291.56;;;8.24;45.27
12799;BME280;19250;42.646;26.980;2022-12-19T10:18:04;101298.16;;;8.48;45.03
12799;BME280;19250;42.646;26.980;2022-12-19T10:20:41;101287.88;;;8.27;44.24
12799;BME280;19250;42.646;26.980;2022-12-19T10:23:22;101288.06;;;8.23;44.47
12799;BME280;19250;42.646;26.980;2022-12-19T10:25:58;101269.72;;;8.94;47.21
12799;BME280;19250;42.646;26.980;2022-12-19T10:28:47;101281.44;;;9.48;41.80
12799;BME280;19250;42.646;26.980;2022-12-19T10:31:21;101236.94;;;9.22;43.75
12799;BME280;19250;42.646;26.980;2022-12-19T10:33:56;101283.09;;;9.92;41.00
12799;BME280;19250;42.646;26.980;2022-12-19T10:36:24;101278.78;;;9.34;42.34
12799;BME280;19250;42.646;26.980;2022-12-19T10:38:56;101280.41;;;9.22;44.22
12799;BME280;19250;42.646;26.980;2022-12-19T10:41:27;101280.72;;;8.13;45.80
12799;BME280;19250;42.646;26.980;2022-12-19T10:43:59;101280.19;;;8.22;48.64
12799;BME280;19250;42.646;26.980;2022-12-19T10:46:41;101284.34;;;8.26;44.79
12799;BME280;19250;42.646;26.980;2022-12-19T10:49:12;101289.25;;;8.49;45.73
12799;BME280;19250;42.646;26.980;2022-12-19T10:51:42;101287.94;;;8.86;43.28
12799;BME280;19250;42.646;26.980;2022-12-19T10:54:18;101267.66;;;9.13;43.02
12799;BME280;19250;42.646;26.980;2022-12-19T10:56:46;101282.28;;;9.20;40.81
12799;BME280;19250;42.646;26.980;2022-12-19T10:59:15;101266.00;;;8.83;41.60
12799;BME280;19250;42.646;26.980;2022-12-19T11:01:45;101267.63;;;8.99;39.45
12799;BME280;19250;42.646;26.980;2022-12-19T11:04:28;101264.00;;;9.00;39.74
12799;BME280;19250;42.646;26.980;2022-12-19T11:07:17;101240.94;;;9.01;40.88
12799;BME280;19250;42.646;26.980;2022-12-19T11:09:45;101252.25;;;9.18;40.82
12799;BME280;19250;42.646;26.980;2022-12-19T11:12:14;101274.44;;;9.88;39.50
12799;BME280;19250;42.646;26.980;2022-12-19T11:14:45;101274.09;;;10.48;37.61
12799;BME280;19250;42.646;26.980;2022-12-19T11:17:34;101272.66;;;10.69;37.47
12799;BME280;19250;42.646;26.980;2022-12-19T11:20:10;101265.88;;;11.03;35.45
12799;BME280;19250;42.646;26.980;2022-12-19T11:22:38;101268.19;;;11.45;35.51
12799;BME280;19250;42.646;26.980;2022-12-19T11:25:14;101262.25;;;11.04;35.57
12799;BME280;19250;42.646;26.980;2022-12-19T11:27:44;101268.31;;;11.43;34.80
12799;BME280;19250;42.646;26.980;2022-12-19T11:30:20;101253.63;;;11.74;34.98
12799;BME280;19250;42.646;26.980;2022-12-19T11:33:06;101246.41;;;11.26;35.17
12799;BME280;19250;42.646;26.980;2022-12-19T11:35:45;101251.25;;;10.17;35.73
12799;BME280;19250;42.646;26.980;2022-12-19T11:38:16;101222.84;;;10.30;36.19
12799;BME280;19250;42.646;26.980;2022-12-19T11:40:47;101245.19;;;9.46;35.64
12799;BME280;19250;42.646;26.980;2022-12-19T11:43:22;101254.69;;;10.46;35.56
12799;BME280;19250;42.646;26.980;2022-12-19T11:45:57;101224.38;;;9.52;35.25
12799;BME280;19250;42.646;26.980;2022-12-19T11:48:34;101252.44;;;8.57;37.83
12799;BME280;19250;42.646;26.980;2022-12-19T11:51:11;101251.56;;;9.01;37.49
12799;BME280;19250;42.646;26.980;2022-12-19T11:53:48;101247.97;;;9.16;37.35
12799;BME280;19250;42.646;26.980;2022-12-19T11:56:19;101250.81;;;9.27;36.96
12799;BME280;19250;42.646;26.980;2022-12-19T11:58:49;101248.72;;;9.46;36.99
12799;BME280;19250;42.646;26.980;2022-12-19T12:01:31;101141.66;;;9.41;36.51
12799;BME280;19250;42.646;26.980;2022-12-19T12:07:13;101205.81;;;9.92;35.82
12799;BME280;19250;42.646;26.980;2022-12-19T12:13:08;101245.88;;;11.46;33.67
12799;BME280;19250;42.646;26.980;2022-12-19T12:15:47;101240.19;;;11.76;33.70
12799;BME280;19250;42.646;26.980;2022-12-19T12:18:28;101241.63;;;12.40;33.00
12799;BME280;19250;42.646;26.980;2022-12-19T12:21:06;101233.78;;;13.73;32.02
12799;BME280;19250;42.646;26.980;2022-12-19T12:23:44;101228.31;;;14.60;29.40
12799;BME280;19250;42.646;26.980;2022-12-19T12:26:23;101225.19;;;12.68;31.25
12799;BME280;19250;42.646;26.980;2022-12-19T12:29:02;101210.31;;;11.69;32.95
12799;BME280;19250;42.646;26.980;2022-12-19T12:31:42;101216.81;;;12.38;33.11
12799;BME280;19250;42.646;26.980;2022-12-19T12:34:38;101213.22;;;12.61;32.16
12799;BME280;19250;42.646;26.980;2022-12-19T12:37:21;101219.22;;;12.06;32.40
12799;BME280;19250;42.646;26.980;2022-12-19T12:40:02;101220.84;;;11.96;33.25
12799;BME280;19250;42.646;26.980;2022-12-19T12:42:41;101220.06;;;12.65;33.21
12799;BME280;19250;42.646;26.980;2022-12-19T12:45:18;101211.44;;;13.30;32.33
12799;BME280;19250;42.646;26.980;2022-12-19T12:47:50;101219.94;;;13.13;31.75
12799;BME280;19250;42.646;26.980;2022-12-19T12:50:21;101219.84;;;12.79;32.04
12799;BME280;19250;42.646;26.980;2022-12-19T12:52:51;101222.63;;;11.72;33.38
12799;BME280;19250;42.646;26.980;2022-12-19T12:55:25;101209.88;;;12.12;33.34
12799;BME280;19250;42.646;26.980;2022-12-19T12:57:53;101220.88;;;11.83;33.39
12799;BME280;19250;42.646;26.980;2022-12-19T13:00:23;101187.94;;;12.65;31.61
12799;BME280;19250;42.646;26.980;2022-12-19T13:02:54;101223.28;;;11.75;32.64
12799;BME280;19250;42.646;26.980;2022-12-19T13:05:37;101227.31;;;10.94;34.34
12799;BME280;19250;42.646;26.980;2022-12-19T13:08:28;101225.47;;;11.32;34.21
12799;BME280;19250;42.646;26.980;2022-12-19T13:11:00;101225.94;;;10.88;34.81
12799;BME280;19250;42.646;26.980;2022-12-19T13:13:50;101229.53;;;11.38;34.67
12799;BME280;19250;42.646;26.980;2022-12-19T13:16:50;101232.41;;;11.35;34.63
12799;BME280;19250;42.646;26.980;2022-12-19T13:19:20;101227.47;;;10.53;35.39
12799;BME280;19250;42.646;26.980;2022-12-19T13:22:16;101231.41;;;8.97;37.76
12799;BME280;19250;42.646;26.980;2022-12-19T13:24:45;101229.16;;;8.61;39.22